createdAt,value
2023-12-30T00:00:18.033Z,34.99
2023-12-30T00:01:08.168Z,35.01
2023-12-30T00:02:07.132Z,35.03
2023-12-30T00:03:07.213Z,34.99
2023-12-30T00:04:07.361Z,34.99
2023-12-30T00:05:07.299Z,34.99
2023-12-30T00:06:07.284Z,34.99
2023-12-30T00:07:07.304Z,34.98
2023-12-30T00:08:07.326Z,35.00
2023-12-30T00:09:07.370Z,35.00
2023-12-30T00:10:07.484Z,35.01
2023-12-30T00:11:07.562Z,35.01
2023-12-30T00:12:07.630Z,35.03
2023-12-30T00:13:07.734Z,35.04
2023-12-30T00:14:07.827Z,35.00
2023-12-30T00:15:07.961Z,35.00
2023-12-30T00:16:08.038Z,35.02
2023-12-30T00:17:08.091Z,35.00
2023-12-30T00:18:08.281Z,35.00
2023-12-30T00:19:08.341Z,35.02
2023-12-30T00:20:08.378Z,35.00
2023-12-30T00:21:08.438Z,35.03
2023-12-30T00:22:08.537Z,35.04
2023-12-30T00:23:08.625Z,35.04
2023-12-30T00:24:08.825Z,35.05
2023-12-30T00:25:08.873Z,35.05
2023-12-30T00:26:08.899Z,35.05
2023-12-30T00:27:08.977Z,35.05
2023-12-30T00:28:09.122Z,35.05
2023-12-30T00:29:09.168Z,35.06
2023-12-30T00:30:09.294Z,35.07
2023-12-30T00:31:09.418Z,35.08
2023-12-30T00:32:09.451Z,35.09
2023-12-30T00:33:09.589Z,35.04
2023-12-30T00:34:09.724Z,35.06
2023-12-30T00:35:09.697Z,35.10
2023-12-30T00:36:09.804Z,35.09
2023-12-30T00:37:09.936Z,35.07
2023-12-30T00:38:09.973Z,35.08
2023-12-30T00:39:10.052Z,35.12
2023-12-30T00:40:10.241Z,35.08
2023-12-30T00:41:10.514Z,35.08
2023-12-30T00:42:10.327Z,35.08
2023-12-30T00:43:10.425Z,35.09
2023-12-30T00:44:10.546Z,35.09
2023-12-30T00:45:10.587Z,35.08
2023-12-30T00:46:10.707Z,35.08
2023-12-30T00:47:10.780Z,35.07
2023-12-30T00:48:10.989Z,35.09
2023-12-30T00:49:11.351Z,35.07
2023-12-30T00:50:11.067Z,35.09
2023-12-30T00:51:11.171Z,35.09
2023-12-30T00:52:11.292Z,35.11
2023-12-30T00:53:11.334Z,35.10
2023-12-30T00:54:11.436Z,35.08
2023-12-30T00:55:11.551Z,35.10
2023-12-30T00:56:11.665Z,35.10
2023-12-30T00:57:11.714Z,35.09
2023-12-30T00:58:11.893Z,35.11
2023-12-30T00:59:11.894Z,35.09
2023-12-30T01:00:11.986Z,35.10
2023-12-30T01:01:12.182Z,35.12
2023-12-30T01:02:12.222Z,35.09
2023-12-30T01:03:12.287Z,35.13
2023-12-30T01:04:12.434Z,35.12
2023-12-30T01:05:12.561Z,35.10
2023-12-30T01:06:12.521Z,35.09
2023-12-30T01:07:12.668Z,35.09
2023-12-30T01:08:12.737Z,35.09
2023-12-30T01:09:12.813Z,35.06
2023-12-30T01:10:12.955Z,35.10
2023-12-30T01:11:12.996Z,35.09
2023-12-30T01:12:13.065Z,35.09
2023-12-30T01:13:13.214Z,35.11
2023-12-30T01:14:13.264Z,35.10
2023-12-30T01:15:13.344Z,35.09
2023-12-30T01:16:13.496Z,35.08
2023-12-30T01:17:13.538Z,35.08
2023-12-30T01:18:13.669Z,35.09
2023-12-30T01:19:13.844Z,35.08
2023-12-30T01:20:13.820Z,35.12
2023-12-30T01:21:13.880Z,35.11
2023-12-30T01:22:13.990Z,35.10
2023-12-30T01:23:14.072Z,35.12
2023-12-30T01:24:14.161Z,35.09
2023-12-30T01:25:14.275Z,35.08
2023-12-30T01:26:14.336Z,35.09
2023-12-30T01:27:14.451Z,35.10
2023-12-30T01:28:14.578Z,35.09
2023-12-30T01:29:14.619Z,35.12
2023-12-30T01:30:14.751Z,35.12
2023-12-30T01:31:14.856Z,35.14
2023-12-30T01:32:14.913Z,35.13
2023-12-30T01:33:15.081Z,35.11
2023-12-30T01:34:15.207Z,35.13
2023-12-30T01:35:15.195Z,35.12
2023-12-30T01:36:15.292Z,35.13
2023-12-30T01:37:15.451Z,35.12
2023-12-30T01:38:15.461Z,35.12
2023-12-30T01:39:15.559Z,35.12
2023-12-30T01:40:15.740Z,35.15
2023-12-30T01:41:15.748Z,35.13
2023-12-30T01:42:15.925Z,35.13
2023-12-30T01:43:15.955Z,35.14
2023-12-30T01:44:16.047Z,35.12
2023-12-30T01:45:16.145Z,35.17
2023-12-30T01:46:16.262Z,35.15
2023-12-30T01:47:16.373Z,35.15
2023-12-30T01:48:16.518Z,35.18
2023-12-30T01:49:16.533Z,35.15
2023-12-30T01:50:16.616Z,35.13
2023-12-30T01:51:24.765Z,35.14
2023-12-30T01:52:17.751Z,35.15
2023-12-30T01:53:16.792Z,35.14
2023-12-30T01:54:16.796Z,35.15
2023-12-30T01:55:16.876Z,35.15
2023-12-30T01:56:16.840Z,35.13
2023-12-30T01:57:16.881Z,35.16
2023-12-30T01:58:16.929Z,35.15
2023-12-30T01:59:16.988Z,35.17
2023-12-30T02:00:17.003Z,35.18
2023-12-30T02:01:17.170Z,35.18
2023-12-30T02:02:17.246Z,35.18
2023-12-30T02:03:17.285Z,35.21
2023-12-30T02:04:17.367Z,35.17
2023-12-30T02:05:17.569Z,35.15
2023-12-30T02:06:17.563Z,35.18
2023-12-30T02:07:17.664Z,35.17
2023-12-30T02:08:17.806Z,35.17
2023-12-30T02:09:17.843Z,35.19
2023-12-30T02:10:18.019Z,35.19
2023-12-30T02:11:18.039Z,35.22
2023-12-30T02:12:18.127Z,35.21
2023-12-30T02:13:18.221Z,35.21
2023-12-30T02:14:18.299Z,35.22
2023-12-30T02:15:18.394Z,35.19
2023-12-30T02:16:18.540Z,35.22
2023-12-30T02:17:18.575Z,35.21
2023-12-30T02:18:18.921Z,35.18
2023-12-30T02:19:18.946Z,35.19
2023-12-30T02:20:18.932Z,35.20
2023-12-30T02:21:18.961Z,35.18
2023-12-30T02:22:19.102Z,35.19
2023-12-30T02:23:19.165Z,35.17
2023-12-30T02:24:19.271Z,35.18
2023-12-30T02:25:19.416Z,35.18
2023-12-30T02:26:19.442Z,35.16
2023-12-30T02:27:19.535Z,35.16
2023-12-30T02:28:19.671Z,35.20
2023-12-30T02:29:19.750Z,35.18
2023-12-30T02:30:19.845Z,35.18
2023-12-30T02:31:19.978Z,35.18
2023-12-30T02:32:20.010Z,35.21
2023-12-30T02:33:20.178Z,35.20
2023-12-30T02:34:20.394Z,35.18
2023-12-30T02:35:20.303Z,35.21
2023-12-30T02:36:20.453Z,35.21
2023-12-30T02:37:20.528Z,35.21
2023-12-30T02:38:20.601Z,35.18
2023-12-30T02:39:20.692Z,35.19
2023-12-30T02:40:20.819Z,35.22
2023-12-30T02:41:20.879Z,35.21
2023-12-30T02:42:20.973Z,35.22
2023-12-30T02:43:21.085Z,35.23
2023-12-30T02:44:21.166Z,35.22
2023-12-30T02:45:21.266Z,35.22
2023-12-30T02:46:21.381Z,35.21
2023-12-30T02:47:21.476Z,35.25
2023-12-30T02:48:21.630Z,35.27
2023-12-30T02:49:21.764Z,35.23
2023-12-30T02:50:21.743Z,35.23
2023-12-30T02:51:21.842Z,35.22
2023-12-30T02:52:21.929Z,35.23
2023-12-30T02:53:22.031Z,35.19
2023-12-30T02:54:22.176Z,35.23
2023-12-30T02:55:22.234Z,35.23
2023-12-30T02:56:22.307Z,35.19
2023-12-30T02:57:22.472Z,35.21
2023-12-30T02:58:22.563Z,35.19
2023-12-30T02:59:22.609Z,35.22
2023-12-30T03:00:22.699Z,35.19
2023-12-30T03:01:22.838Z,35.21
2023-12-30T03:02:22.924Z,35.23
2023-12-30T03:03:22.975Z,35.24
2023-12-30T03:04:23.240Z,35.22
2023-12-30T03:05:23.261Z,35.23
2023-12-30T03:06:23.376Z,35.23
2023-12-30T03:07:23.396Z,35.23
2023-12-30T03:08:23.467Z,35.25
2023-12-30T03:09:23.576Z,35.25
2023-12-30T03:10:23.763Z,35.28
2023-12-30T03:11:23.757Z,35.26
2023-12-30T03:12:23.846Z,35.30
2023-12-30T03:13:24.069Z,35.27
2023-12-30T03:14:24.031Z,35.26
2023-12-30T03:15:24.129Z,35.27
2023-12-30T03:16:24.270Z,35.26
2023-12-30T03:17:24.331Z,35.23
2023-12-30T03:18:24.483Z,35.22
2023-12-30T03:19:24.535Z,35.21
2023-12-30T03:20:24.609Z,35.24
2023-12-30T03:21:24.742Z,35.24
2023-12-30T03:22:24.844Z,35.23
2023-12-30T03:23:24.909Z,35.22
2023-12-30T03:24:25.044Z,35.23
2023-12-30T03:25:25.119Z,35.24
2023-12-30T03:26:25.207Z,35.24
2023-12-30T03:27:25.305Z,35.23
2023-12-30T03:28:25.421Z,35.24
2023-12-30T03:29:25.505Z,35.25
2023-12-30T03:30:25.646Z,35.25
2023-12-30T03:31:25.784Z,35.22
2023-12-30T03:32:25.807Z,35.22
2023-12-30T03:33:26.082Z,35.23
2023-12-30T03:34:26.032Z,35.21
2023-12-30T03:35:26.091Z,35.23
2023-12-30T03:36:26.217Z,35.22
2023-12-30T03:37:26.363Z,35.21
2023-12-30T03:38:26.405Z,35.22
2023-12-30T03:39:26.503Z,35.25
2023-12-30T03:40:26.632Z,35.22
2023-12-30T03:41:26.709Z,35.24
2023-12-30T03:42:26.814Z,35.21
2023-12-30T03:43:26.954Z,35.25
2023-12-30T03:44:27.008Z,35.23
2023-12-30T03:45:27.106Z,35.26
2023-12-30T03:46:27.328Z,35.26
2023-12-30T03:47:27.338Z,35.25
2023-12-30T03:48:27.470Z,35.24
2023-12-30T03:49:27.708Z,35.27
2023-12-30T03:50:27.609Z,35.24
2023-12-30T03:51:27.708Z,35.25
2023-12-30T03:52:27.917Z,35.23
2023-12-30T03:53:27.900Z,35.26
2023-12-30T03:54:27.994Z,35.26
2023-12-30T03:55:28.129Z,35.27
2023-12-30T03:56:28.201Z,35.28
2023-12-30T03:57:28.306Z,35.27
2023-12-30T03:58:28.489Z,35.29
2023-12-30T03:59:28.503Z,35.27
2023-12-30T04:00:28.588Z,35.28
2023-12-30T04:01:28.743Z,35.27
2023-12-30T04:02:28.860Z,35.28
2023-12-30T04:03:28.889Z,35.29
2023-12-30T04:04:29.047Z,35.28
2023-12-30T04:05:29.121Z,35.27
2023-12-30T04:06:29.223Z,35.27
2023-12-30T04:07:29.344Z,35.27
2023-12-30T04:08:29.400Z,35.27
2023-12-30T04:09:29.559Z,35.28
2023-12-30T04:10:29.655Z,35.26
2023-12-30T04:11:29.743Z,35.27
2023-12-30T04:12:29.818Z,35.28
2023-12-30T04:13:29.970Z,35.28
2023-12-30T04:14:30.011Z,35.27
2023-12-30T04:15:30.092Z,35.32
2023-12-30T04:16:30.288Z,35.31
2023-12-30T04:17:30.303Z,35.29
2023-12-30T04:18:30.414Z,35.26
2023-12-30T04:19:30.572Z,35.27
2023-12-30T04:20:30.578Z,35.30
2023-12-30T04:21:30.681Z,35.29
2023-12-30T04:22:30.812Z,35.30
2023-12-30T04:23:30.876Z,35.30
2023-12-30T04:24:30.965Z,35.28
2023-12-30T04:25:31.104Z,35.28
2023-12-30T04:26:31.168Z,35.29
2023-12-30T04:27:31.277Z,35.30
2023-12-30T04:28:31.432Z,35.30
2023-12-30T04:29:31.462Z,35.29
2023-12-30T04:30:31.582Z,35.29
2023-12-30T04:31:31.674Z,35.30
2023-12-30T04:32:31.766Z,35.30
2023-12-30T04:33:31.955Z,35.28
2023-12-30T04:34:31.975Z,35.27
2023-12-30T04:35:32.053Z,35.28
2023-12-30T04:36:32.155Z,35.26
2023-12-30T04:37:32.322Z,35.27
2023-12-30T04:38:32.356Z,35.29
2023-12-30T04:39:32.464Z,35.28
2023-12-30T04:40:32.639Z,35.29
2023-12-30T04:41:32.699Z,35.26
2023-12-30T04:42:32.770Z,35.27
2023-12-30T04:43:32.955Z,35.26
2023-12-30T04:44:32.967Z,35.28
2023-12-30T04:45:33.070Z,35.28
2023-12-30T04:46:33.184Z,35.28
2023-12-30T04:47:33.293Z,35.27
2023-12-30T04:48:33.377Z,35.27
2023-12-30T04:49:33.561Z,35.28
2023-12-30T04:50:33.586Z,35.28
2023-12-30T04:51:33.654Z,35.27
2023-12-30T04:52:33.802Z,35.27
2023-12-30T04:53:33.851Z,35.27
2023-12-30T04:54:33.957Z,35.27
2023-12-30T04:55:34.102Z,35.28
2023-12-30T04:56:34.224Z,35.26
2023-12-30T04:57:34.269Z,35.27
2023-12-30T04:58:34.373Z,35.27
2023-12-30T04:59:34.452Z,35.28
2023-12-30T05:00:34.624Z,35.27
2023-12-30T05:01:34.737Z,35.27
2023-12-30T05:02:34.753Z,35.29
2023-12-30T05:03:34.887Z,35.31
2023-12-30T05:04:34.989Z,35.29
2023-12-30T05:05:42.411Z,35.32
2023-12-30T05:06:42.343Z,35.30
2023-12-30T05:07:42.358Z,35.29
2023-12-30T05:08:42.363Z,35.27
2023-12-30T05:09:42.377Z,35.28
2023-12-30T05:10:42.455Z,35.29
2023-12-30T05:11:42.482Z,35.28
2023-12-30T05:12:42.432Z,35.28
2023-12-30T05:13:42.516Z,35.30
2023-12-30T05:14:42.451Z,35.30
2023-12-30T05:15:42.469Z,35.29
2023-12-30T05:16:42.519Z,35.28
2023-12-30T05:17:42.683Z,35.29
2023-12-30T05:18:42.569Z,35.29
2023-12-30T05:19:42.594Z,35.29
2023-12-30T05:20:42.537Z,35.32
2023-12-30T05:21:43.036Z,35.33
2023-12-30T05:22:42.569Z,35.28
2023-12-30T05:23:42.568Z,35.27
2023-12-30T05:24:42.584Z,35.28
2023-12-30T05:25:42.647Z,35.26
2023-12-30T05:26:42.703Z,35.27
2023-12-30T05:27:42.628Z,35.27
2023-12-30T05:28:42.640Z,35.26
2023-12-30T05:29:42.655Z,35.29
2023-12-30T05:30:42.705Z,35.30
2023-12-30T05:31:42.737Z,35.30
2023-12-30T05:32:42.737Z,35.28
2023-12-30T05:33:42.721Z,35.27
2023-12-30T05:34:42.804Z,35.30
2023-12-30T05:35:42.731Z,35.28
2023-12-30T05:36:42.735Z,35.29
2023-12-30T05:37:42.747Z,35.28
2023-12-30T05:38:42.763Z,35.27
2023-12-30T05:39:42.782Z,35.26
2023-12-30T05:40:42.846Z,35.26
2023-12-30T05:41:42.806Z,35.28
2023-12-30T05:42:42.833Z,35.28
2023-12-30T05:43:42.959Z,35.29
2023-12-30T05:44:42.858Z,35.28
2023-12-30T05:45:42.873Z,35.30
2023-12-30T05:46:42.985Z,35.29
2023-12-30T05:47:42.924Z,35.30
2023-12-30T05:48:42.972Z,35.28
2023-12-30T05:49:42.969Z,35.30
2023-12-30T05:50:42.963Z,35.28
2023-12-30T05:51:42.989Z,35.28
2023-12-30T05:52:43.003Z,35.27
2023-12-30T05:53:43.015Z,35.31
2023-12-30T05:54:43.032Z,35.28
2023-12-30T05:55:43.128Z,35.26
2023-12-30T05:56:43.066Z,35.27
2023-12-30T05:57:43.091Z,35.27
2023-12-30T05:58:43.085Z,35.26
2023-12-30T05:59:43.125Z,35.25
2023-12-30T06:00:43.124Z,35.26
2023-12-30T06:01:43.205Z,35.26
2023-12-30T06:02:43.149Z,35.25
2023-12-30T06:03:43.175Z,35.26
2023-12-30T06:04:43.205Z,35.26
2023-12-30T06:05:43.197Z,35.27
2023-12-30T06:06:43.187Z,35.26
2023-12-30T06:07:43.231Z,35.25
2023-12-30T06:08:43.217Z,35.26
2023-12-30T06:09:43.254Z,35.26
2023-12-30T06:10:43.326Z,35.26
2023-12-30T06:11:43.268Z,35.25
2023-12-30T06:12:43.292Z,35.27
2023-12-30T06:13:43.350Z,35.27
2023-12-30T06:14:43.379Z,35.26
2023-12-30T06:15:43.339Z,35.25
2023-12-30T06:16:43.346Z,35.25
2023-12-30T06:17:43.395Z,35.24
2023-12-30T06:18:43.464Z,35.26
2023-12-30T06:19:43.428Z,35.25
2023-12-30T06:20:43.374Z,35.27
2023-12-30T06:21:43.387Z,35.25
2023-12-30T06:22:43.409Z,35.26
2023-12-30T06:23:43.425Z,35.24
2023-12-30T06:24:43.424Z,35.25
2023-12-30T06:25:43.489Z,35.26
2023-12-30T06:26:43.447Z,35.26
2023-12-30T06:27:43.463Z,35.24
2023-12-30T06:28:43.517Z,35.23
2023-12-30T06:29:43.496Z,35.24
2023-12-30T06:30:43.575Z,35.23
2023-12-30T06:31:43.707Z,35.23
2023-12-30T06:32:43.598Z,35.25
2023-12-30T06:33:43.595Z,35.23
2023-12-30T06:34:43.599Z,35.22
2023-12-30T06:35:43.568Z,35.25
2023-12-30T06:36:44.691Z,35.23
2023-12-30T06:37:43.618Z,35.22
2023-12-30T06:38:43.601Z,35.25
2023-12-30T06:39:43.616Z,35.23
2023-12-30T06:40:43.772Z,35.25
2023-12-30T06:41:43.623Z,35.25
2023-12-30T06:42:43.642Z,35.25
2023-12-30T06:43:43.710Z,35.23
2023-12-30T06:44:43.672Z,35.25
2023-12-30T06:45:43.743Z,35.24
2023-12-30T06:46:43.714Z,35.26
2023-12-30T06:47:43.778Z,35.25
2023-12-30T06:48:43.739Z,35.23
2023-12-30T06:49:43.792Z,35.26
2023-12-30T06:50:43.740Z,35.26
2023-12-30T06:51:43.750Z,35.25
2023-12-30T06:52:43.772Z,35.26
2023-12-30T06:53:43.783Z,35.25
2023-12-30T06:54:43.786Z,35.26
2023-12-30T06:55:48.010Z,35.24
2023-12-30T06:56:43.795Z,35.25
2023-12-30T06:57:43.804Z,35.26
2023-12-30T06:58:43.818Z,35.23
2023-12-30T06:59:43.859Z,35.26
2023-12-30T07:00:43.843Z,35.23
2023-12-30T07:01:43.875Z,35.24
2023-12-30T07:02:43.890Z,35.26
2023-12-30T07:03:43.930Z,35.23
2023-12-30T07:04:43.978Z,35.23
2023-12-30T07:05:43.908Z,35.24
2023-12-30T07:06:43.888Z,35.23
2023-12-30T07:07:43.889Z,35.21
2023-12-30T07:08:43.932Z,35.23
2023-12-30T07:09:43.913Z,35.23
2023-12-30T07:10:43.939Z,35.24
2023-12-30T07:11:43.993Z,35.24
2023-12-30T07:12:43.941Z,35.25
2023-12-30T07:13:44.017Z,35.25
2023-12-30T07:14:44.053Z,35.24
2023-12-30T07:15:43.965Z,35.26
2023-12-30T07:16:43.982Z,35.26
2023-12-30T07:17:44.009Z,35.26
2023-12-30T07:18:44.280Z,35.25
2023-12-30T07:19:44.053Z,35.25
2023-12-30T07:20:44.082Z,35.27
2023-12-30T07:21:44.055Z,35.26
2023-12-30T07:22:44.077Z,35.24
2023-12-30T07:23:44.093Z,35.24
2023-12-30T07:24:44.083Z,35.25
2023-12-30T07:25:44.108Z,35.25
2023-12-30T07:26:44.139Z,35.22
2023-12-30T07:27:44.138Z,35.21
2023-12-30T07:28:44.153Z,35.24
2023-12-30T07:29:44.212Z,35.24
2023-12-30T07:30:44.292Z,35.26
2023-12-30T07:31:44.273Z,35.24
2023-12-30T07:32:44.323Z,35.26
2023-12-30T07:33:44.474Z,35.27
2023-12-30T07:34:44.362Z,35.27
2023-12-30T07:35:44.376Z,35.27
2023-12-30T07:36:44.385Z,35.26
2023-12-30T07:37:44.449Z,35.25
2023-12-30T07:38:44.447Z,35.27
2023-12-30T07:39:44.471Z,35.29
2023-12-30T07:40:44.572Z,35.28
2023-12-30T07:41:44.534Z,35.29
2023-12-30T07:42:44.559Z,35.26
2023-12-30T07:43:44.795Z,35.27
2023-12-30T07:44:44.611Z,35.27
2023-12-30T07:45:44.648Z,35.29
2023-12-30T07:46:44.667Z,35.29
2023-12-30T07:47:44.718Z,35.28
2023-12-30T07:48:44.815Z,35.27
2023-12-30T07:49:44.888Z,35.28
2023-12-30T07:50:44.793Z,35.32
2023-12-30T07:51:44.830Z,35.31
2023-12-30T07:52:44.917Z,35.31
2023-12-30T07:53:44.891Z,35.29
2023-12-30T07:54:44.914Z,35.29
2023-12-30T07:55:44.970Z,35.28
2023-12-30T07:56:44.994Z,35.26
2023-12-30T07:57:44.993Z,35.28
2023-12-30T07:58:45.060Z,35.28
2023-12-30T07:59:45.059Z,35.29
2023-12-30T08:00:45.569Z,35.30
2023-12-30T08:01:46.045Z,35.27
2023-12-30T08:02:45.137Z,35.28
2023-12-30T08:03:45.228Z,35.28
2023-12-30T08:04:45.351Z,35.28
2023-12-30T08:05:45.265Z,35.29
2023-12-30T08:06:45.242Z,35.27
2023-12-30T08:07:46.186Z,35.28
2023-12-30T08:08:45.296Z,35.31
2023-12-30T08:09:45.333Z,35.28
2023-12-30T08:10:45.404Z,35.31
2023-12-30T08:12:45.414Z,35.33
2023-12-30T08:13:45.477Z,35.31
2023-12-30T08:14:45.556Z,35.32
2023-12-30T08:15:45.497Z,35.30
2023-12-30T08:16:45.501Z,35.30
2023-12-30T08:17:45.586Z,35.29
2023-12-30T08:18:45.603Z,35.30
2023-12-30T08:19:45.650Z,35.28
2023-12-30T08:20:45.621Z,35.26
2023-12-30T08:21:45.663Z,35.30
2023-12-30T08:22:45.719Z,35.30
2023-12-30T08:23:45.703Z,35.28
2023-12-30T08:24:45.727Z,35.29
2023-12-30T08:25:45.800Z,35.29
2023-12-30T08:26:45.782Z,35.29
2023-12-30T08:27:45.806Z,35.30
2023-12-30T08:28:45.827Z,35.30
2023-12-30T08:29:45.859Z,35.29
2023-12-30T08:30:45.931Z,35.30
2023-12-30T08:31:45.954Z,35.29
2023-12-30T08:32:45.990Z,35.29
2023-12-30T08:33:46.016Z,35.26
2023-12-30T08:34:46.024Z,35.27
2023-12-30T08:35:45.997Z,35.25
2023-12-30T08:36:46.430Z,35.27
2023-12-30T08:37:46.122Z,35.26
2023-12-30T08:38:46.071Z,35.27
2023-12-30T08:39:46.098Z,35.27
2023-12-30T08:40:46.187Z,35.25
2023-12-30T08:41:46.142Z,35.27
2023-12-30T08:42:46.169Z,35.26
2023-12-30T08:43:46.207Z,35.24
2023-12-30T08:44:46.216Z,35.25
2023-12-30T08:45:46.361Z,35.23
2023-12-30T08:46:46.417Z,35.23
2023-12-30T08:47:46.329Z,35.27
2023-12-30T08:48:46.342Z,35.23
2023-12-30T08:49:46.409Z,35.25
2023-12-30T08:50:46.340Z,35.24
2023-12-30T08:51:46.362Z,35.24
2023-12-30T08:52:46.422Z,35.24
2023-12-30T08:53:46.415Z,35.23
2023-12-30T08:54:46.423Z,35.24
2023-12-30T08:55:46.550Z,35.23
2023-12-30T08:56:46.470Z,35.23
2023-12-30T08:57:46.473Z,35.23
2023-12-30T08:58:46.496Z,35.22
2023-12-30T08:59:46.507Z,35.22
2023-12-30T09:00:46.566Z,35.21
2023-12-30T09:01:46.564Z,35.23
2023-12-30T09:02:46.571Z,35.23
2023-12-30T09:03:46.691Z,35.21
2023-12-30T09:04:46.648Z,35.22
2023-12-30T09:05:46.648Z,35.21
2023-12-30T09:06:46.701Z,35.20
2023-12-30T09:07:46.738Z,35.21
2023-12-30T09:08:46.712Z,35.21
2023-12-30T09:09:46.750Z,35.20
2023-12-30T09:10:46.826Z,35.20
2023-12-30T09:11:46.778Z,35.19
2023-12-30T09:12:46.822Z,35.17
2023-12-30T09:13:46.898Z,35.18
2023-12-30T09:14:46.839Z,35.17
2023-12-30T09:15:46.846Z,35.17
2023-12-30T09:16:47.075Z,35.16
2023-12-30T09:17:47.107Z,35.15
2023-12-30T09:18:47.021Z,35.13
2023-12-30T09:19:46.959Z,35.12
2023-12-30T09:20:46.954Z,35.09
2023-12-30T09:21:46.964Z,35.08
2023-12-30T09:22:46.983Z,35.09
2023-12-30T09:23:47.004Z,35.06
2023-12-30T09:24:47.025Z,35.02
2023-12-30T09:25:47.086Z,34.99
2023-12-30T09:26:47.074Z,34.97
2023-12-30T09:27:48.084Z,34.94
2023-12-30T09:28:47.152Z,34.90
2023-12-30T09:29:47.205Z,34.86
2023-12-30T09:30:47.275Z,34.84
2023-12-30T09:31:47.300Z,34.79
2023-12-30T09:32:47.382Z,34.77
2023-12-30T09:33:47.424Z,34.74
2023-12-30T09:34:47.453Z,34.72
2023-12-30T09:35:47.459Z,34.67
2023-12-30T09:36:47.535Z,34.65
2023-12-30T09:37:47.581Z,34.59
2023-12-30T09:38:47.660Z,34.57
2023-12-30T09:39:47.730Z,34.58
2023-12-30T09:40:47.825Z,34.57
2023-12-30T09:41:47.893Z,34.56
2023-12-30T09:42:47.966Z,34.52
2023-12-30T09:43:48.145Z,34.55
2023-12-30T09:44:48.116Z,34.51
2023-12-30T09:45:48.186Z,34.52
2023-12-30T09:46:48.301Z,34.54
2023-12-30T09:47:48.531Z,34.53
2023-12-30T09:48:48.600Z,34.52
2023-12-30T09:49:48.552Z,34.51
2023-12-30T09:50:48.552Z,34.51
2023-12-30T09:51:48.635Z,34.50
2023-12-30T09:52:48.675Z,34.51
2023-12-30T09:53:48.806Z,34.50
2023-12-30T09:54:49.777Z,34.52
2023-12-30T09:55:48.886Z,34.52
2023-12-30T09:56:48.978Z,34.50
2023-12-30T09:57:49.003Z,34.50
2023-12-30T09:58:49.070Z,34.52
2023-12-30T09:59:49.205Z,34.50
2023-12-30T10:00:49.688Z,34.50
2023-12-30T10:01:49.369Z,34.50
2023-12-30T10:02:49.434Z,34.52
2023-12-30T10:03:49.394Z,34.51
2023-12-30T10:04:49.455Z,34.51
2023-12-30T10:05:49.601Z,34.53
2023-12-30T10:06:49.573Z,34.53
2023-12-30T10:07:49.711Z,34.54
2023-12-30T10:08:49.698Z,34.52
2023-12-30T10:09:49.785Z,34.53
2023-12-30T10:10:49.826Z,34.54
2023-12-30T10:11:49.888Z,34.54
2023-12-30T10:12:49.942Z,34.51
2023-12-30T10:13:50.084Z,34.54
2023-12-30T10:14:50.099Z,34.53
2023-12-30T10:15:50.135Z,34.54
2023-12-30T10:16:50.200Z,34.55
2023-12-30T10:17:50.349Z,34.54
2023-12-30T10:18:51.091Z,34.52
2023-12-30T10:19:50.393Z,34.54
2023-12-30T10:20:50.433Z,34.54
2023-12-30T10:21:50.511Z,34.53
2023-12-30T10:22:50.578Z,34.51
2023-12-30T10:23:50.633Z,34.51
2023-12-30T10:24:50.669Z,34.50
2023-12-30T10:25:50.719Z,34.50
2023-12-30T10:26:50.795Z,34.49
2023-12-30T10:27:50.847Z,34.50
2023-12-30T10:28:50.921Z,34.49
2023-12-30T10:29:54.227Z,34.49
2023-12-30T10:30:52.018Z,34.51
2023-12-30T10:31:50.994Z,34.50
2023-12-30T10:32:51.043Z,34.47
2023-12-30T10:33:51.114Z,34.47
2023-12-30T10:34:51.137Z,34.47
2023-12-30T10:35:50.999Z,34.46
2023-12-30T10:36:51.006Z,34.48
2023-12-30T10:37:51.007Z,34.48
2023-12-30T10:38:51.009Z,34.47
2023-12-30T10:39:51.002Z,34.46
2023-12-30T10:40:53.642Z,34.47
2023-12-30T10:41:51.004Z,34.45
2023-12-30T10:42:51.001Z,34.45
2023-12-30T10:43:51.068Z,34.44
2023-12-30T10:44:51.009Z,34.46
2023-12-30T10:45:51.008Z,34.44
2023-12-30T10:46:53.344Z,34.42
2023-12-30T10:47:51.038Z,34.44
2023-12-30T10:48:51.016Z,34.44
2023-12-30T10:49:51.074Z,34.44
2023-12-30T10:50:51.014Z,34.42
2023-12-30T10:51:51.014Z,34.42
2023-12-30T10:52:52.742Z,34.42
2023-12-30T10:53:51.023Z,34.46
2023-12-30T10:54:51.048Z,34.43
2023-12-30T10:55:51.082Z,34.43
2023-12-30T10:56:51.038Z,34.42
2023-12-30T10:57:51.052Z,34.42
2023-12-30T10:58:51.938Z,34.43
2023-12-30T10:59:51.054Z,34.42
2023-12-30T11:00:51.096Z,34.42
2023-12-30T11:01:51.084Z,34.42
2023-12-30T11:02:51.054Z,34.41
2023-12-30T11:03:51.108Z,34.40
2023-12-30T11:04:53.446Z,34.41
2023-12-30T11:05:51.346Z,34.39
2023-12-30T11:06:51.437Z,34.38
2023-12-30T11:07:51.355Z,34.39
2023-12-30T11:08:51.425Z,34.37
2023-12-30T11:09:51.467Z,34.39
2023-12-30T11:10:51.673Z,34.39
2023-12-30T11:11:51.569Z,34.37
2023-12-30T11:12:51.612Z,34.39
2023-12-30T11:13:51.671Z,34.36
2023-12-30T11:14:51.704Z,34.38
2023-12-30T11:15:51.778Z,34.37
2023-12-30T11:16:51.919Z,34.38
2023-12-30T11:17:51.900Z,34.37
2023-12-30T11:18:52.020Z,34.36
2023-12-30T11:19:51.989Z,34.37
2023-12-30T11:20:52.031Z,34.35
2023-12-30T11:21:52.062Z,34.35
2023-12-30T11:22:52.126Z,34.36
2023-12-30T11:23:52.180Z,34.35
2023-12-30T11:24:52.236Z,34.36
2023-12-30T11:25:52.311Z,34.36
2023-12-30T11:26:52.336Z,34.37
2023-12-30T11:27:52.387Z,34.37
2023-12-30T11:28:52.450Z,34.37
2023-12-30T11:29:52.514Z,34.37
2023-12-30T11:30:52.666Z,34.37
2023-12-30T11:31:52.651Z,34.35
2023-12-30T11:32:52.707Z,34.36
2023-12-30T11:33:52.798Z,34.36
2023-12-30T11:34:52.858Z,34.37
2023-12-30T11:35:52.815Z,34.38
2023-12-30T11:36:52.870Z,34.38
2023-12-30T11:37:52.931Z,34.38
2023-12-30T11:38:53.578Z,34.39
2023-12-30T11:39:53.048Z,34.39
2023-12-30T11:40:53.181Z,34.39
2023-12-30T11:41:53.185Z,34.38
2023-12-30T11:42:53.195Z,34.40
2023-12-30T11:43:53.306Z,34.37
2023-12-30T11:44:55.438Z,34.39
2023-12-30T11:45:53.377Z,34.40
2023-12-30T11:46:53.417Z,34.41
2023-12-30T11:47:53.596Z,34.41
2023-12-30T11:48:53.586Z,34.41
2023-12-30T11:49:53.583Z,34.42
2023-12-30T11:50:53.621Z,34.42
2023-12-30T11:51:53.674Z,34.43
2023-12-30T11:52:53.743Z,34.45
2023-12-30T11:53:53.842Z,34.42
2023-12-30T11:54:53.931Z,34.43
2023-12-30T11:55:53.905Z,34.46
2023-12-30T11:56:53.941Z,34.45
2023-12-30T11:57:54.011Z,34.45
2023-12-30T11:58:54.066Z,34.45
2023-12-30T11:59:54.121Z,34.46
2023-12-30T12:00:54.228Z,34.46
2023-12-30T12:01:54.288Z,34.49
2023-12-30T12:02:54.290Z,34.47
2023-12-30T12:03:54.365Z,34.50
2023-12-30T12:04:54.522Z,34.49
2023-12-30T12:05:54.516Z,34.49
2023-12-30T12:06:54.544Z,34.50
2023-12-30T12:07:54.598Z,34.49
2023-12-30T12:08:54.664Z,34.49
2023-12-30T12:09:54.730Z,34.51
2023-12-30T12:10:54.870Z,34.51
2023-12-30T12:11:54.830Z,34.50
2023-12-30T12:12:54.979Z,34.52
2023-12-30T12:13:54.989Z,34.53
2023-12-30T12:14:55.033Z,34.54
2023-12-30T12:15:55.089Z,34.55
2023-12-30T12:16:55.137Z,34.58
2023-12-30T12:17:55.288Z,34.59
2023-12-30T12:18:55.390Z,34.60
2023-12-30T12:19:55.401Z,34.60
2023-12-30T12:20:55.382Z,34.62
2023-12-30T12:21:55.536Z,34.60
2023-12-30T12:22:55.551Z,34.62
2023-12-30T12:23:55.582Z,34.65
2023-12-30T12:24:55.686Z,34.61
2023-12-30T12:25:55.686Z,34.63
2023-12-30T12:26:55.826Z,34.64
2023-12-30T12:27:55.887Z,34.66
2023-12-30T12:28:55.848Z,34.67
2023-12-30T12:29:56.012Z,34.68
2023-12-30T12:30:56.081Z,34.68
2023-12-30T12:31:56.057Z,34.71
2023-12-30T12:32:56.194Z,34.69
2023-12-30T12:33:56.273Z,34.71
2023-12-30T12:34:56.235Z,34.72
2023-12-30T12:35:56.282Z,34.74
2023-12-30T12:36:56.388Z,34.72
2023-12-30T12:37:56.406Z,34.75
2023-12-30T12:38:56.450Z,34.77
2023-12-30T12:39:56.538Z,34.80
2023-12-30T12:40:56.573Z,34.80
2023-12-30T12:41:56.631Z,34.80
2023-12-30T12:42:56.816Z,34.83
2023-12-30T12:43:56.754Z,34.84
2023-12-30T12:44:56.844Z,34.83
2023-12-30T12:45:56.921Z,34.84
2023-12-30T12:46:56.955Z,34.84
2023-12-30T12:47:57.082Z,34.82
2023-12-30T12:48:57.131Z,34.84
2023-12-30T12:49:57.295Z,34.83
2023-12-30T12:50:57.155Z,34.86
2023-12-30T12:51:57.254Z,34.84
2023-12-30T12:52:57.278Z,34.82
2023-12-30T12:53:57.343Z,34.82